CES5809 ZPPP-ZPJH
Flight info
| Callsign | CES5809 |
|---|---|
| Flight time | N/A |
| Altitude | 17700 |
| Route | ELASU A581 BIDRU |
| Aircraft | B737/M-SDE2E3FGHIRWXY/LB1 |
Departure
| Time | 2026-04-29 00:06 |
|---|---|
| Airport | Kunming Changshui International Airport (ZPPP) |
Arrival
| Time | N/A |
|---|---|
| Airport | Xishuangbanna Gasa International Airport (ZPJH) |
| Time | Latitude | Longitude | Altitude | Speed | Heading |
|---|---|---|---|---|---|
| 2026-04-28 23:43 | 25.11389 | 102.93575 | 6898 ft | 0 kts | 219° |
| 2026-04-28 23:51 | 25.11394 | 102.93579 | 6898 ft | 2 kts | 218° |
| 2026-04-28 23:52 | 25.11407 | 102.93590 | 6899 ft | 2 kts | 219° |
| 2026-04-28 23:52 | 25.11419 | 102.93602 | 6898 ft | 2 kts | 221° |
| 2026-04-28 23:52 | 25.11432 | 102.93614 | 6899 ft | 2 kts | 223° |
| 2026-04-28 23:52 | 25.11444 | 102.93627 | 6899 ft | 2 kts | 226° |
| 2026-04-28 23:53 | 25.11455 | 102.93641 | 6898 ft | 2 kts | 235° |
| 2026-04-28 23:53 | 25.11461 | 102.93657 | 6898 ft | 2 kts | 289° |
| 2026-04-28 23:53 | 25.11459 | 102.93664 | 6898 ft | 0 kts | 308° |
| 2026-04-28 23:57 | 25.11461 | 102.93660 | 6898 ft | 2 kts | 308° |
| 2026-04-28 23:57 | 25.11484 | 102.93628 | 6898 ft | 9 kts | 308° |
| 2026-04-28 23:58 | 25.11526 | 102.93569 | 6899 ft | 10 kts | 308° |
| 2026-04-28 23:58 | 25.11574 | 102.93502 | 6899 ft | 12 kts | 308° |
| 2026-04-28 23:58 | 25.11636 | 102.93437 | 6900 ft | 13 kts | 314° |
| 2026-04-28 23:58 | 25.11678 | 102.93350 | 6900 ft | 14 kts | 263° |
| 2026-04-28 23:59 | 25.11617 | 102.93270 | 6900 ft | 15 kts | 220° |
| 2026-04-28 23:59 | 25.11537 | 102.93202 | 6901 ft | 14 kts | 218° |
| 2026-04-28 23:59 | 25.11442 | 102.93119 | 6901 ft | 19 kts | 219° |
| 2026-04-28 23:59 | 25.11339 | 102.93027 | 6902 ft | 19 kts | 219° |
| 2026-04-29 00:00 | 25.11238 | 102.92940 | 6902 ft | 18 kts | 217° |
| 2026-04-29 00:00 | 25.11139 | 102.92857 | 6903 ft | 18 kts | 217° |
| 2026-04-29 00:00 | 25.11044 | 102.92776 | 6903 ft | 17 kts | 217° |
| 2026-04-29 00:00 | 25.10954 | 102.92697 | 6903 ft | 16 kts | 219° |
| 2026-04-29 00:01 | 25.10867 | 102.92620 | 6904 ft | 16 kts | 218° |
| 2026-04-29 00:01 | 25.10779 | 102.92543 | 6911 ft | 17 kts | 218° |
| 2026-04-29 00:01 | 25.10686 | 102.92461 | 6909 ft | 17 kts | 218° |
| 2026-04-29 00:01 | 25.10596 | 102.92383 | 6905 ft | 16 kts | 219° |
| 2026-04-29 00:02 | 25.10510 | 102.92306 | 6918 ft | 16 kts | 218° |
| 2026-04-29 00:02 | 25.10426 | 102.92236 | 6906 ft | 15 kts | 218° |
| 2026-04-29 00:02 | 25.10337 | 102.92158 | 6909 ft | 17 kts | 218° |
| 2026-04-29 00:02 | 25.10244 | 102.92076 | 6907 ft | 17 kts | 219° |
| 2026-04-29 00:03 | 25.10155 | 102.91998 | 6907 ft | 16 kts | 219° |
| 2026-04-29 00:03 | 25.10093 | 102.91908 | 6907 ft | 15 kts | 279° |
| 2026-04-29 00:03 | 25.10152 | 102.91812 | 6914 ft | 15 kts | 309° |
| 2026-04-29 00:03 | 25.10217 | 102.91729 | 6917 ft | 6 kts | 312° |
| 2026-04-29 00:04 | 25.10226 | 102.91719 | 6908 ft | 2 kts | 315° |
| 2026-04-29 00:04 | 25.10246 | 102.91716 | 6912 ft | 4 kts | 21° |
| 2026-04-29 00:04 | 25.10268 | 102.91731 | 6908 ft | 0 kts | 39° |
| 2026-04-29 00:05 | 25.10279 | 102.91741 | 6908 ft | 11 kts | 39° |
| 2026-04-29 00:05 | 25.10549 | 102.91979 | 6908 ft | 85 kts | 38° |
| 2026-04-29 00:05 | 25.11184 | 102.92531 | 6903 ft | 145 kts | 38° |
| 2026-04-29 00:06 | 25.12092 | 102.93333 | 7021 ft | 186 kts | 39° |
| 2026-04-29 00:06 | 25.13145 | 102.94278 | 7603 ft | 203 kts | 39° |
| 2026-04-29 00:06 | 25.14361 | 102.95124 | 8328 ft | 209 kts | 27° |
| 2026-04-29 00:06 | 25.15699 | 102.95743 | 9188 ft | 206 kts | 22° |
| 2026-04-29 00:07 | 25.17059 | 102.96315 | 9631 ft | 225 kts | 22° |
| 2026-04-29 00:07 | 25.18630 | 102.96981 | 9812 ft | 251 kts | 22° |
| 2026-04-29 00:07 | 25.20277 | 102.97679 | 10540 ft | 256 kts | 22° |
| 2026-04-29 00:07 | 25.21955 | 102.98423 | 11294 ft | 262 kts | 22° |
| 2026-04-29 00:08 | 25.23656 | 102.99203 | 12100 ft | 267 kts | 22° |
| 2026-04-29 00:08 | 25.25377 | 103.00030 | 12877 ft | 273 kts | 22° |
| 2026-04-29 00:08 | 25.27131 | 103.00900 | 13651 ft | 279 kts | 22° |
| 2026-04-29 00:08 | 25.28919 | 103.01813 | 14375 ft | 286 kts | 22° |
| 2026-04-29 00:09 | 25.30728 | 103.02758 | 15114 ft | 289 kts | 22° |
| 2026-04-29 00:09 | 25.32530 | 103.03713 | 15794 ft | 296 kts | 22° |
| 2026-04-29 00:09 | 25.34442 | 103.04730 | 16168 ft | 314 kts | 22° |
| 2026-04-29 00:09 | 25.36473 | 103.05806 | 16499 ft | 333 kts | 22° |
| 2026-04-29 00:10 | 25.38608 | 103.06938 | 16958 ft | 346 kts | 22° |
| 2026-04-29 00:10 | 25.40809 | 103.08110 | 17518 ft | 355 kts | 22° |
| 2026-04-29 00:10 | 25.43062 | 103.09323 | 17657 ft | 365 kts | 22° |
| 2026-04-29 00:10 | 25.45344 | 103.10561 | 17667 ft | 365 kts | 25° |
| 2026-04-29 00:11 | 25.47453 | 103.12112 | 17666 ft | 364 kts | 35° |
| 2026-04-29 00:11 | 25.49381 | 103.13947 | 17666 ft | 365 kts | 36° |
| 2026-04-29 00:11 | 25.53202 | 103.15397 | 17666 ft | 350 kts | 353° |
| 2026-04-29 00:12 | 25.55493 | 103.14636 | 17675 ft | 343 kts | 327° |
| 2026-04-29 00:12 | 25.57220 | 103.12860 | 17688 ft | 340 kts | 306° |
| 2026-04-29 00:12 | 25.58443 | 103.10621 | 17689 ft | 340 kts | 294° |
| 2026-04-29 00:12 | 25.59168 | 103.08084 | 17755 ft | 355 kts | 280° |
| 2026-04-29 00:13 | 25.59236 | 103.05321 | 17807 ft | 362 kts | 262° |
| 2026-04-29 00:13 | 25.58437 | 103.02693 | 17928 ft | 364 kts | 243° |
| 2026-04-29 00:13 | 25.56840 | 103.00483 | 17991 ft | 373 kts | 227° |
| 2026-04-29 00:13 | 25.54931 | 102.98520 | 17975 ft | 374 kts | 225° |
| 2026-04-29 00:14 | 25.52987 | 102.96605 | 17967 ft | 373 kts | 225° |
| 2026-04-29 00:14 | 25.51040 | 102.94703 | 17965 ft | 373 kts | 224° |
| 2026-04-29 00:14 | 25.49101 | 102.92802 | 17954 ft | 372 kts | 225° |
| 2026-04-29 00:14 | 25.47169 | 102.90893 | 17981 ft | 372 kts | 225° |
| 2026-04-29 00:15 | 25.45269 | 102.89007 | 17971 ft | 372 kts | 225° |
| 2026-04-29 00:15 | 25.43350 | 102.87093 | 17978 ft | 372 kts | 225° |
| 2026-04-29 00:15 | 25.41426 | 102.85170 | 17983 ft | 372 kts | 225° |
| 2026-04-29 00:15 | 25.39506 | 102.83250 | 17993 ft | 372 kts | 225° |
| 2026-04-29 00:16 | 25.37586 | 102.81329 | 17981 ft | 372 kts | 225° |
| 2026-04-29 00:16 | 25.35667 | 102.79411 | 17992 ft | 372 kts | 225° |
| 2026-04-29 00:16 | 25.33745 | 102.77489 | 17986 ft | 372 kts | 225° |
| 2026-04-29 00:16 | 25.31827 | 102.75572 | 17993 ft | 372 kts | 225° |
| 2026-04-29 00:17 | 25.29905 | 102.73654 | 17996 ft | 372 kts | 225° |
| 2026-04-29 00:17 | 25.27982 | 102.71734 | 17997 ft | 373 kts | 225° |
| 2026-04-29 00:17 | 25.26082 | 102.69839 | 17995 ft | 373 kts | 225° |
| 2026-04-29 00:17 | 25.24156 | 102.67917 | 17983 ft | 374 kts | 225° |
| 2026-04-29 00:18 | 25.22225 | 102.65993 | 17982 ft | 373 kts | 225° |
| 2026-04-29 00:18 | 25.20299 | 102.64074 | 17975 ft | 373 kts | 225° |
| 2026-04-29 00:18 | 25.18369 | 102.62151 | 17982 ft | 372 kts | 225° |
| 2026-04-29 00:18 | 25.16449 | 102.60239 | 17974 ft | 372 kts | 225° |
| 2026-04-29 00:19 | 25.14524 | 102.58323 | 17975 ft | 372 kts | 225° |
| 2026-04-29 00:19 | 25.12601 | 102.56409 | 17977 ft | 372 kts | 225° |
| 2026-04-29 00:19 | 25.10677 | 102.54497 | 17969 ft | 372 kts | 225° |
| 2026-04-29 00:19 | 25.08742 | 102.52580 | 17968 ft | 373 kts | 224° |
| 2026-04-29 00:20 | 25.06668 | 102.50861 | 17952 ft | 372 kts | 215° |
| 2026-04-29 00:20 | 25.04477 | 102.49396 | 18020 ft | 369 kts | 214° |
| 2026-04-29 00:20 | 25.02254 | 102.47932 | 18196 ft | 374 kts | 214° |
| 2026-04-29 00:20 | 25.00011 | 102.46454 | 18418 ft | 376 kts | 214° |
| 2026-04-29 00:21 | 24.97769 | 102.44970 | 18602 ft | 374 kts | 214° |
| 2026-04-29 00:21 | 24.95573 | 102.43508 | 18793 ft | 372 kts | 214° |
| 2026-04-29 00:21 | 24.93368 | 102.42035 | 19087 ft | 367 kts | 214° |
| 2026-04-29 00:21 | 24.91195 | 102.40580 | 19530 ft | 365 kts | 214° |
| 2026-04-29 00:22 | 24.89014 | 102.39116 | 19971 ft | 369 kts | 214° |
| 2026-04-29 00:22 | 24.86817 | 102.37640 | 20410 ft | 369 kts | 214° |
| 2026-04-29 00:22 | 24.84634 | 102.36176 | 20845 ft | 367 kts | 215° |
| 2026-04-29 00:22 | 24.82457 | 102.34714 | 21297 ft | 365 kts | 215° |
| 2026-04-29 00:23 | 24.80289 | 102.33260 | 21761 ft | 364 kts | 215° |
| 2026-04-29 00:23 | 24.78106 | 102.31795 | 21935 ft | 372 kts | 215° |
| 2026-04-29 00:23 | 24.75908 | 102.30319 | 21926 ft | 373 kts | 215° |
| 2026-04-29 00:23 | 24.73697 | 102.28838 | 21933 ft | 370 kts | 215° |
| 2026-04-29 00:24 | 24.71506 | 102.27372 | 21930 ft | 368 kts | 215° |
| 2026-04-29 00:24 | 24.69305 | 102.25899 | 21935 ft | 369 kts | 215° |
| 2026-04-29 00:24 | 24.67135 | 102.24445 | 21932 ft | 369 kts | 215° |
| 2026-04-29 00:24 | 24.64937 | 102.22975 | 21932 ft | 369 kts | 215° |
| 2026-04-29 00:25 | 24.62735 | 102.21502 | 21930 ft | 370 kts | 214° |
| 2026-04-29 00:25 | 24.60536 | 102.20032 | 21918 ft | 370 kts | 214° |
| 2026-04-29 00:25 | 24.58339 | 102.18565 | 21917 ft | 370 kts | 214° |
| 2026-04-29 00:25 | 24.57596 | 102.18069 | 21907 ft | 370 kts | 215° |